sensor_id;sensor_type;location;lat;lon;timestamp;P1;durP1;ratioP1;P2;durP2;ratioP2
69736;SDS011;64476;55.004;73.342;2023-04-16T00:00:36;8.90;;;6.00;;
69736;SDS011;64476;55.004;73.342;2023-04-16T00:03:41;8.02;;;5.43;;
69736;SDS011;64476;55.004;73.342;2023-04-16T00:06:53;10.13;;;5.00;;
69736;SDS011;64476;55.004;73.342;2023-04-16T00:09:57;24.48;;;7.03;;
69736;SDS011;64476;55.004;73.342;2023-04-16T00:12:58;7.82;;;4.95;;
69736;SDS011;64476;55.004;73.342;2023-04-16T00:16:00;8.90;;;5.32;;
69736;SDS011;64476;55.004;73.342;2023-04-16T00:19:05;13.95;;;5.50;;
69736;SDS011;64476;55.004;73.342;2023-04-16T00:22:07;11.88;;;6.20;;
69736;SDS011;64476;55.004;73.342;2023-04-16T00:29:35;16.33;;;6.60;;
69736;SDS011;64476;55.004;73.342;2023-04-16T00:32:36;23.98;;;7.13;;
69736;SDS011;64476;55.004;73.342;2023-04-16T00:35:38;27.45;;;7.25;;
69736;SDS011;64476;55.004;73.342;2023-04-16T00:38:40;30.77;;;6.82;;
69736;SDS011;64476;55.004;73.342;2023-04-16T00:41:42;9.38;;;5.13;;
69736;SDS011;64476;55.004;73.342;2023-04-16T00:45:03;6.72;;;5.57;;
69736;SDS011;64476;55.004;73.342;2023-04-16T00:48:10;9.52;;;5.13;;
69736;SDS011;64476;55.004;73.342;2023-04-16T00:51:12;7.57;;;5.32;;
69736;SDS011;64476;55.004;73.342;2023-04-16T00:54:14;15.02;;;4.93;;
69736;SDS011;64476;55.004;73.342;2023-04-16T00:57:53;12.50;;;4.85;;
69736;SDS011;64476;55.004;73.342;2023-04-16T01:01:00;11.05;;;4.63;;
69736;SDS011;64476;55.004;73.342;2023-04-16T01:04:06;9.70;;;4.80;;
69736;SDS011;64476;55.004;73.342;2023-04-16T01:07:08;12.88;;;4.80;;
69736;SDS011;64476;55.004;73.342;2023-04-16T01:10:15;10.77;;;5.90;;
69736;SDS011;64476;55.004;73.342;2023-04-16T01:13:16;12.30;;;7.20;;
69736;SDS011;64476;55.004;73.342;2023-04-16T01:16:27;12.09;;;7.53;;
69736;SDS011;64476;55.004;73.342;2023-04-16T01:19:29;13.57;;;6.97;;
69736;SDS011;64476;55.004;73.342;2023-04-16T01:22:41;12.02;;;7.05;;
69736;SDS011;64476;55.004;73.342;2023-04-16T01:25:43;18.50;;;6.43;;
69736;SDS011;64476;55.004;73.342;2023-04-16T01:28:49;18.02;;;6.43;;
69736;SDS011;64476;55.004;73.342;2023-04-16T01:32:01;16.27;;;6.00;;
69736;SDS011;64476;55.004;73.342;2023-04-16T01:35:08;15.30;;;6.18;;
69736;SDS011;64476;55.004;73.342;2023-04-16T01:38:15;15.32;;;6.72;;
69736;SDS011;64476;55.004;73.342;2023-04-16T01:41:24;26.42;;;7.37;;
69736;SDS011;64476;55.004;73.342;2023-04-16T01:44:25;14.85;;;6.68;;
69736;SDS011;64476;55.004;73.342;2023-04-16T01:47:28;10.18;;;6.03;;
69736;SDS011;64476;55.004;73.342;2023-04-16T01:50:29;17.42;;;6.00;;
69736;SDS011;64476;55.004;73.342;2023-04-16T01:53:32;14.95;;;6.90;;
69736;SDS011;64476;55.004;73.342;2023-04-16T01:56:44;12.05;;;6.65;;
69736;SDS011;64476;55.004;73.342;2023-04-16T01:59:46;10.88;;;5.63;;
69736;SDS011;64476;55.004;73.342;2023-04-16T02:02:55;12.30;;;6.07;;
69736;SDS011;64476;55.004;73.342;2023-04-16T02:06:00;11.13;;;5.43;;
69736;SDS011;64476;55.004;73.342;2023-04-16T02:09:03;13.50;;;4.75;;
69736;SDS011;64476;55.004;73.342;2023-04-16T02:12:15;29.80;;;5.30;;
69736;SDS011;64476;55.004;73.342;2023-04-16T02:15:22;9.50;;;4.15;;
69736;SDS011;64476;55.004;73.342;2023-04-16T02:19:43;6.35;;;4.85;;
69736;SDS011;64476;55.004;73.342;2023-04-16T02:22:45;6.47;;;4.22;;
69736;SDS011;64476;55.004;73.342;2023-04-16T02:26:24;9.60;;;4.35;;
69736;SDS011;64476;55.004;73.342;2023-04-16T02:29:58;17.17;;;4.40;;
69736;SDS011;64476;55.004;73.342;2023-04-16T02:36:23;6.83;;;4.18;;
69736;SDS011;64476;55.004;73.342;2023-04-16T02:39:25;15.05;;;4.40;;
69736;SDS011;64476;55.004;73.342;2023-04-16T02:42:28;11.43;;;4.32;;
69736;SDS011;64476;55.004;73.342;2023-04-16T02:45:35;10.63;;;4.22;;
69736;SDS011;64476;55.004;73.342;2023-04-16T02:48:36;5.70;;;4.63;;
69736;SDS011;64476;55.004;73.342;2023-04-16T02:51:45;39.28;;;4.97;;
69736;SDS011;64476;55.004;73.342;2023-04-16T02:54:47;18.10;;;4.35;;
69736;SDS011;64476;55.004;73.342;2023-04-16T02:57:50;7.72;;;4.30;;
69736;SDS011;64476;55.004;73.342;2023-04-16T03:00:55;11.02;;;3.88;;
69736;SDS011;64476;55.004;73.342;2023-04-16T03:03:57;20.35;;;4.57;;
69736;SDS011;64476;55.004;73.342;2023-04-16T03:06:59;13.30;;;4.38;;
69736;SDS011;64476;55.004;73.342;2023-04-16T03:10:01;18.02;;;4.28;;
69736;SDS011;64476;55.004;73.342;2023-04-16T03:13:04;13.13;;;4.00;;
69736;SDS011;64476;55.004;73.342;2023-04-16T03:16:06;30.85;;;4.00;;
69736;SDS011;64476;55.004;73.342;2023-04-16T03:19:08;9.93;;;5.10;;
69736;SDS011;64476;55.004;73.342;2023-04-16T03:22:10;8.85;;;3.85;;
69736;SDS011;64476;55.004;73.342;2023-04-16T03:25:22;15.88;;;3.15;;
69736;SDS011;64476;55.004;73.342;2023-04-16T03:28:29;16.17;;;3.55;;
69736;SDS011;64476;55.004;73.342;2023-04-16T03:31:32;13.60;;;3.33;;
69736;SDS011;64476;55.004;73.342;2023-04-16T03:34:34;9.68;;;4.53;;
69736;SDS011;64476;55.004;73.342;2023-04-16T03:37:37;7.88;;;3.28;;
69736;SDS011;64476;55.004;73.342;2023-04-16T03:40:38;7.45;;;3.40;;
69736;SDS011;64476;55.004;73.342;2023-04-16T03:43:41;10.60;;;3.10;;
69736;SDS011;64476;55.004;73.342;2023-04-16T03:46:56;9.95;;;3.13;;
69736;SDS011;64476;55.004;73.342;2023-04-16T03:49:58;2.57;;;2.37;;
69736;SDS011;64476;55.004;73.342;2023-04-16T03:52:59;4.97;;;2.75;;
69736;SDS011;64476;55.004;73.342;2023-04-16T03:56:01;4.28;;;3.33;;
69736;SDS011;64476;55.004;73.342;2023-04-16T03:59:05;6.80;;;2.70;;
69736;SDS011;64476;55.004;73.342;2023-04-16T04:06:07;3.40;;;2.45;;
69736;SDS011;64476;55.004;73.342;2023-04-16T04:09:09;21.80;;;2.85;;
69736;SDS011;64476;55.004;73.342;2023-04-16T04:12:11;7.68;;;2.40;;
69736;SDS011;64476;55.004;73.342;2023-04-16T04:15:20;15.70;;;2.80;;
69736;SDS011;64476;55.004;73.342;2023-04-16T04:18:22;6.68;;;2.13;;
69736;SDS011;64476;55.004;73.342;2023-04-16T04:21:23;2.22;;;2.08;;
69736;SDS011;64476;55.004;73.342;2023-04-16T04:24:25;12.88;;;2.80;;
69736;SDS011;64476;55.004;73.342;2023-04-16T04:27:27;6.93;;;2.30;;
69736;SDS011;64476;55.004;73.342;2023-04-16T04:30:29;11.07;;;2.20;;
69736;SDS011;64476;55.004;73.342;2023-04-16T04:33:36;24.40;;;2.60;;
69736;SDS011;64476;55.004;73.342;2023-04-16T04:36:38;44.67;;;2.72;;
69736;SDS011;64476;55.004;73.342;2023-04-16T04:39:39;3.63;;;2.42;;
69736;SDS011;64476;55.004;73.342;2023-04-16T04:42:52;10.05;;;2.35;;
69736;SDS011;64476;55.004;73.342;2023-04-16T04:46:00;5.07;;;2.08;;
69736;SDS011;64476;55.004;73.342;2023-04-16T04:49:03;20.47;;;2.17;;
69736;SDS011;64476;55.004;73.342;2023-04-16T04:52:15;16.00;;;2.55;;
69736;SDS011;64476;55.004;73.342;2023-04-16T04:55:29;12.98;;;2.50;;
69736;SDS011;64476;55.004;73.342;2023-04-16T04:58:32;2.33;;;2.10;;
69736;SDS011;64476;55.004;73.342;2023-04-16T05:01:45;23.83;;;2.88;;
69736;SDS011;64476;55.004;73.342;2023-04-16T05:04:51;27.27;;;3.03;;
69736;SDS011;64476;55.004;73.342;2023-04-16T05:08:43;29.00;;;2.33;;
69736;SDS011;64476;55.004;73.342;2023-04-16T05:11:54;25.02;;;2.40;;
69736;SDS011;64476;55.004;73.342;2023-04-16T05:14:57;157.70;;;7.57;;
69736;SDS011;64476;55.004;73.342;2023-04-16T05:17:59;70.90;;;4.30;;
69736;SDS011;64476;55.004;73.342;2023-04-16T05:21:01;46.38;;;2.85;;
69736;SDS011;64476;55.004;73.342;2023-04-16T05:24:02;3.92;;;2.30;;
69736;SDS011;64476;55.004;73.342;2023-04-16T05:27:04;8.32;;;2.92;;
69736;SDS011;64476;55.004;73.342;2023-04-16T05:30:06;6.78;;;2.35;;
69736;SDS011;64476;55.004;73.342;2023-04-16T05:33:14;5.93;;;2.20;;
69736;SDS011;64476;55.004;73.342;2023-04-16T05:36:24;3.75;;;2.07;;
69736;SDS011;64476;55.004;73.342;2023-04-16T05:39:30;2.00;;;1.90;;
69736;SDS011;64476;55.004;73.342;2023-04-16T05:42:32;3.83;;;2.40;;
69736;SDS011;64476;55.004;73.342;2023-04-16T05:45:33;4.93;;;2.88;;
69736;SDS011;64476;55.004;73.342;2023-04-16T05:48:40;4.55;;;2.17;;
69736;SDS011;64476;55.004;73.342;2023-04-16T05:51:42;6.70;;;1.95;;
69736;SDS011;64476;55.004;73.342;2023-04-16T05:54:47;21.27;;;2.65;;
69736;SDS011;64476;55.004;73.342;2023-04-16T05:57:51;63.90;;;5.45;;
69736;SDS011;64476;55.004;73.342;2023-04-16T06:00:52;19.20;;;4.82;;
69736;SDS011;64476;55.004;73.342;2023-04-16T06:04:01;21.42;;;2.90;;
69736;SDS011;64476;55.004;73.342;2023-04-16T06:07:23;18.03;;;2.23;;
69736;SDS011;64476;55.004;73.342;2023-04-16T06:10:25;12.27;;;2.08;;
69736;SDS011;64476;55.004;73.342;2023-04-16T06:13:31;5.68;;;1.90;;
69736;SDS011;64476;55.004;73.342;2023-04-16T06:16:33;16.70;;;4.60;;
69736;SDS011;64476;55.004;73.342;2023-04-16T06:19:35;4.65;;;2.00;;
69736;SDS011;64476;55.004;73.342;2023-04-16T06:22:37;12.07;;;1.83;;
69736;SDS011;64476;55.004;73.342;2023-04-16T06:25:38;3.90;;;1.77;;
69736;SDS011;64476;55.004;73.342;2023-04-16T06:28:40;21.70;;;4.22;;
69736;SDS011;64476;55.004;73.342;2023-04-16T06:31:42;27.73;;;3.97;;
69736;SDS011;64476;55.004;73.342;2023-04-16T06:34:48;32.53;;;3.80;;
69736;SDS011;64476;55.004;73.342;2023-04-16T06:38:22;14.20;;;3.90;;
69736;SDS011;64476;55.004;73.342;2023-04-16T06:41:23;9.57;;;4.30;;
69736;SDS011;64476;55.004;73.342;2023-04-16T06:44:26;15.50;;;3.13;;
69736;SDS011;64476;55.004;73.342;2023-04-16T06:47:28;9.25;;;1.90;;
69736;SDS011;64476;55.004;73.342;2023-04-16T06:54:41;16.70;;;2.80;;
69736;SDS011;64476;55.004;73.342;2023-04-16T06:57:43;73.40;;;5.00;;
69736;SDS011;64476;55.004;73.342;2023-04-16T07:00:45;13.48;;;3.42;;
69736;SDS011;64476;55.004;73.342;2023-04-16T07:03:47;9.63;;;2.10;;
69736;SDS011;64476;55.004;73.342;2023-04-16T07:06:48;14.82;;;2.90;;
69736;SDS011;64476;55.004;73.342;2023-04-16T07:09:50;11.43;;;2.85;;
69736;SDS011;64476;55.004;73.342;2023-04-16T07:12:52;6.05;;;1.92;;
69736;SDS011;64476;55.004;73.342;2023-04-16T07:15:58;8.60;;;2.10;;
69736;SDS011;64476;55.004;73.342;2023-04-16T07:19:00;8.05;;;1.88;;
69736;SDS011;64476;55.004;73.342;2023-04-16T07:22:02;4.00;;;1.77;;
69736;SDS011;64476;55.004;73.342;2023-04-16T07:25:04;26.35;;;3.88;;
69736;SDS011;64476;55.004;73.342;2023-04-16T07:28:16;34.70;;;5.25;;
69736;SDS011;64476;55.004;73.342;2023-04-16T07:31:23;28.70;;;3.93;;
69736;SDS011;64476;55.004;73.342;2023-04-16T07:34:25;23.88;;;4.72;;
69736;SDS011;64476;55.004;73.342;2023-04-16T07:37:27;4.97;;;1.90;;
69736;SDS011;64476;55.004;73.342;2023-04-16T07:40:29;22.98;;;3.42;;
69736;SDS011;64476;55.004;73.342;2023-04-16T07:47:47;38.63;;;3.30;;
69736;SDS011;64476;55.004;73.342;2023-04-16T07:50:50;24.38;;;2.92;;
69736;SDS011;64476;55.004;73.342;2023-04-16T07:53:57;24.92;;;3.00;;
69736;SDS011;64476;55.004;73.342;2023-04-16T07:56:58;8.50;;;3.08;;
69736;SDS011;64476;55.004;73.342;2023-04-16T08:00:00;10.13;;;1.85;;
69736;SDS011;64476;55.004;73.342;2023-04-16T08:03:41;8.50;;;1.98;;
69736;SDS011;64476;55.004;73.342;2023-04-16T08:06:45;2.83;;;1.80;;
69736;SDS011;64476;55.004;73.342;2023-04-16T08:09:54;2.70;;;1.48;;
69736;SDS011;64476;55.004;73.342;2023-04-16T08:13:28;7.03;;;1.70;;
69736;SDS011;64476;55.004;73.342;2023-04-16T08:16:30;19.88;;;2.30;;
69736;SDS011;64476;55.004;73.342;2023-04-16T08:19:32;8.43;;;1.92;;
69736;SDS011;64476;55.004;73.342;2023-04-16T08:22:44;5.85;;;1.98;;
69736;SDS011;64476;55.004;73.342;2023-04-16T08:25:46;13.82;;;2.50;;
69736;SDS011;64476;55.004;73.342;2023-04-16T08:28:48;6.05;;;2.42;;
69736;SDS011;64476;55.004;73.342;2023-04-16T08:31:49;20.92;;;2.25;;
69736;SDS011;64476;55.004;73.342;2023-04-16T08:35:01;7.95;;;2.10;;
69736;SDS011;64476;55.004;73.342;2023-04-16T08:42:30;16.15;;;2.03;;
69736;SDS011;64476;55.004;73.342;2023-04-16T08:45:33;9.93;;;1.98;;
69736;SDS011;64476;55.004;73.342;2023-04-16T08:48:35;6.33;;;1.83;;
69736;SDS011;64476;55.004;73.342;2023-04-16T08:51:37;5.32;;;1.80;;
69736;SDS011;64476;55.004;73.342;2023-04-16T08:54:58;6.03;;;1.92;;
69736;SDS011;64476;55.004;73.342;2023-04-16T08:58:31;15.50;;;2.03;;
69736;SDS011;64476;55.004;73.342;2023-04-16T09:01:35;8.13;;;2.42;;
69736;SDS011;64476;55.004;73.342;2023-04-16T09:05:13;2.85;;;1.85;;
69736;SDS011;64476;55.004;73.342;2023-04-16T09:08:53;5.13;;;2.47;;
69736;SDS011;64476;55.004;73.342;2023-04-16T09:11:55;2.87;;;1.63;;
69736;SDS011;64476;55.004;73.342;2023-04-16T09:15:01;3.53;;;1.60;;
69736;SDS011;64476;55.004;73.342;2023-04-16T09:18:15;17.90;;;2.53;;
69736;SDS011;64476;55.004;73.342;2023-04-16T09:21:23;11.30;;;2.98;;
69736;SDS011;64476;55.004;73.342;2023-04-16T09:24:26;27.25;;;3.92;;
69736;SDS011;64476;55.004;73.342;2023-04-16T09:27:29;8.02;;;2.20;;
69736;SDS011;64476;55.004;73.342;2023-04-16T09:30:31;16.75;;;2.20;;
69736;SDS011;64476;55.004;73.342;2023-04-16T09:33:40;6.95;;;1.70;;
69736;SDS011;64476;55.004;73.342;2023-04-16T09:40:16;44.47;;;3.00;;
69736;SDS011;64476;55.004;73.342;2023-04-16T09:44:01;8.30;;;1.73;;
69736;SDS011;64476;55.004;73.342;2023-04-16T09:47:10;4.18;;;2.22;;
69736;SDS011;64476;55.004;73.342;2023-04-16T09:50:18;19.63;;;3.03;;
69736;SDS011;64476;55.004;73.342;2023-04-16T09:53:24;13.70;;;2.38;;
69736;SDS011;64476;55.004;73.342;2023-04-16T09:56:27;6.54;;;2.24;;
69736;SDS011;64476;55.004;73.342;2023-04-16T09:59:30;7.65;;;2.30;;
69736;SDS011;64476;55.004;73.342;2023-04-16T10:02:39;6.43;;;2.03;;
69736;SDS011;64476;55.004;73.342;2023-04-16T10:05:44;9.90;;;2.03;;
69736;SDS011;64476;55.004;73.342;2023-04-16T10:08:48;4.97;;;2.25;;
69736;SDS011;64476;55.004;73.342;2023-04-16T10:11:55;3.60;;;2.08;;
69736;SDS011;64476;55.004;73.342;2023-04-16T10:14:57;8.48;;;3.08;;
69736;SDS011;64476;55.004;73.342;2023-04-16T10:17:59;4.15;;;2.08;;
69736;SDS011;64476;55.004;73.342;2023-04-16T10:21:14;3.38;;;2.10;;
69736;SDS011;64476;55.004;73.342;2023-04-16T10:24:16;6.50;;;1.75;;
69736;SDS011;64476;55.004;73.342;2023-04-16T10:27:27;2.60;;;2.30;;
69736;SDS011;64476;55.004;73.342;2023-04-16T10:30:30;2.85;;;1.77;;
69736;SDS011;64476;55.004;73.342;2023-04-16T10:33:36;9.32;;;1.90;;
69736;SDS011;64476;55.004;73.342;2023-04-16T10:36:41;7.90;;;2.97;;
69736;SDS011;64476;55.004;73.342;2023-04-16T10:39:43;5.00;;;2.20;;
69736;SDS011;64476;55.004;73.342;2023-04-16T10:42:52;7.18;;;2.17;;
69736;SDS011;64476;55.004;73.342;2023-04-16T10:49:22;12.15;;;3.28;;
69736;SDS011;64476;55.004;73.342;2023-04-16T10:52:24;7.90;;;1.80;;
69736;SDS011;64476;55.004;73.342;2023-04-16T10:55:29;1.80;;;1.70;;
69736;SDS011;64476;55.004;73.342;2023-04-16T10:58:32;9.55;;;2.08;;
69736;SDS011;64476;55.004;73.342;2023-04-16T11:01:43;2.93;;;1.80;;
69736;SDS011;64476;55.004;73.342;2023-04-16T11:04:50;2.80;;;1.75;;
69736;SDS011;64476;55.004;73.342;2023-04-16T11:07:52;11.95;;;2.08;;
69736;SDS011;64476;55.004;73.342;2023-04-16T11:10:54;12.70;;;2.30;;
69736;SDS011;64476;55.004;73.342;2023-04-16T11:14:08;4.40;;;2.08;;
69736;SDS011;64476;55.004;73.342;2023-04-16T11:17:11;119.80;;;8.77;;
69736;SDS011;64476;55.004;73.342;2023-04-16T11:20:20;3.67;;;3.28;;
69736;SDS011;64476;55.004;73.342;2023-04-16T11:23:23;1.85;;;1.70;;
69736;SDS011;64476;55.004;73.342;2023-04-16T11:26:26;6.00;;;2.00;;
69736;SDS011;64476;55.004;73.342;2023-04-16T11:29:39;12.60;;;1.92;;
69736;SDS011;64476;55.004;73.342;2023-04-16T11:32:47;12.57;;;2.28;;
69736;SDS011;64476;55.004;73.342;2023-04-16T11:36:23;3.78;;;1.88;;
69736;SDS011;64476;55.004;73.342;2023-04-16T11:39:25;5.05;;;1.80;;
69736;SDS011;64476;55.004;73.342;2023-04-16T11:42:29;5.85;;;2.30;;
69736;SDS011;64476;55.004;73.342;2023-04-16T11:45:31;25.17;;;3.05;;
69736;SDS011;64476;55.004;73.342;2023-04-16T11:48:49;21.23;;;2.83;;
69736;SDS011;64476;55.004;73.342;2023-04-16T11:51:52;10.52;;;2.60;;
69736;SDS011;64476;55.004;73.342;2023-04-16T11:55:01;2.95;;;2.50;;
69736;SDS011;64476;55.004;73.342;2023-04-16T11:58:11;2.57;;;2.30;;
69736;SDS011;64476;55.004;73.342;2023-04-16T12:01:23;2.72;;;2.28;;
69736;SDS011;64476;55.004;73.342;2023-04-16T12:04:29;6.10;;;2.47;;
69736;SDS011;64476;55.004;73.342;2023-04-16T12:08:05;5.20;;;2.55;;
69736;SDS011;64476;55.004;73.342;2023-04-16T12:11:10;9.68;;;3.42;;
69736;SDS011;64476;55.004;73.342;2023-04-16T12:14:13;21.38;;;2.65;;
69736;SDS011;64476;55.004;73.342;2023-04-16T12:17:48;5.55;;;2.50;;
69736;SDS011;64476;55.004;73.342;2023-04-16T12:20:51;11.20;;;2.50;;
69736;SDS011;64476;55.004;73.342;2023-04-16T12:23:53;2.80;;;2.40;;
69736;SDS011;64476;55.004;73.342;2023-04-16T12:26:59;10.27;;;2.50;;
69736;SDS011;64476;55.004;73.342;2023-04-16T12:30:03;10.70;;;2.72;;
69736;SDS011;64476;55.004;73.342;2023-04-16T12:36:25;2.60;;;2.40;;
69736;SDS011;64476;55.004;73.342;2023-04-16T12:39:32;6.85;;;2.47;;
69736;SDS011;64476;55.004;73.342;2023-04-16T12:42:35;5.15;;;2.10;;
69736;SDS011;64476;55.004;73.342;2023-04-16T12:45:37;5.38;;;1.95;;
69736;SDS011;64476;55.004;73.342;2023-04-16T12:48:44;9.53;;;2.00;;
69736;SDS011;64476;55.004;73.342;2023-04-16T12:51:46;20.60;;;2.17;;
69736;SDS011;64476;55.004;73.342;2023-04-16T12:54:47;3.60;;;2.15;;
69736;SDS011;64476;55.004;73.342;2023-04-16T12:57:49;19.60;;;2.53;;
69736;SDS011;64476;55.004;73.342;2023-04-16T13:01:24;4.75;;;2.70;;
69736;SDS011;64476;55.004;73.342;2023-04-16T13:04:26;22.55;;;3.58;;
69736;SDS011;64476;55.004;73.342;2023-04-16T13:07:30;14.73;;;2.78;;
69736;SDS011;64476;55.004;73.342;2023-04-16T13:10:33;6.05;;;2.38;;
69736;SDS011;64476;55.004;73.342;2023-04-16T13:13:35;11.25;;;2.85;;
69736;SDS011;64476;55.004;73.342;2023-04-16T13:16:37;8.07;;;2.53;;
69736;SDS011;64476;55.004;73.342;2023-04-16T13:19:39;5.15;;;2.83;;
69736;SDS011;64476;55.004;73.342;2023-04-16T13:22:41;5.47;;;2.95;;
69736;SDS011;64476;55.004;73.342;2023-04-16T13:25:42;5.22;;;2.85;;
69736;SDS011;64476;55.004;73.342;2023-04-16T13:28:44;3.63;;;2.38;;
69736;SDS011;64476;55.004;73.342;2023-04-16T13:31:49;2.88;;;2.53;;
69736;SDS011;64476;55.004;73.342;2023-04-16T13:34:51;7.38;;;3.45;;
69736;SDS011;64476;55.004;73.342;2023-04-16T13:37:55;3.22;;;2.55;;
69736;SDS011;64476;55.004;73.342;2023-04-16T13:41:02;9.48;;;2.80;;
69736;SDS011;64476;55.004;73.342;2023-04-16T13:44:04;7.63;;;2.70;;
69736;SDS011;64476;55.004;73.342;2023-04-16T13:47:11;7.32;;;2.70;;
69736;SDS011;64476;55.004;73.342;2023-04-16T13:50:14;6.65;;;3.15;;
69736;SDS011;64476;55.004;73.342;2023-04-16T13:56:56;8.73;;;3.50;;
69736;SDS011;64476;55.004;73.342;2023-04-16T14:00:36;19.92;;;5.13;;
69736;SDS011;64476;55.004;73.342;2023-04-16T14:03:38;15.80;;;4.85;;
69736;SDS011;64476;55.004;73.342;2023-04-16T14:06:40;31.38;;;6.13;;
69736;SDS011;64476;55.004;73.342;2023-04-16T14:09:42;52.97;;;6.78;;
69736;SDS011;64476;55.004;73.342;2023-04-16T14:12:44;14.63;;;5.95;;
69736;SDS011;64476;55.004;73.342;2023-04-16T14:15:46;28.30;;;6.30;;
69736;SDS011;64476;55.004;73.342;2023-04-16T14:18:52;29.00;;;6.63;;
69736;SDS011;64476;55.004;73.342;2023-04-16T14:22:26;17.10;;;6.67;;
69736;SDS011;64476;55.004;73.342;2023-04-16T14:25:32;10.35;;;6.43;;
69736;SDS011;64476;55.004;73.342;2023-04-16T14:28:34;44.60;;;7.57;;
69736;SDS011;64476;55.004;73.342;2023-04-16T14:31:36;12.32;;;6.10;;
69736;SDS011;64476;55.004;73.342;2023-04-16T14:34:38;22.92;;;6.18;;
69736;SDS011;64476;55.004;73.342;2023-04-16T14:37:40;21.55;;;6.47;;
69736;SDS011;64476;55.004;73.342;2023-04-16T14:40:41;80.07;;;8.15;;
69736;SDS011;64476;55.004;73.342;2023-04-16T14:43:43;19.20;;;7.43;;
69736;SDS011;64476;55.004;73.342;2023-04-16T14:46:45;30.13;;;9.30;;
69736;SDS011;64476;55.004;73.342;2023-04-16T14:54:13;28.90;;;7.83;;
69736;SDS011;64476;55.004;73.342;2023-04-16T14:57:14;42.05;;;8.32;;
69736;SDS011;64476;55.004;73.342;2023-04-16T15:00:17;30.90;;;6.55;;
69736;SDS011;64476;55.004;73.342;2023-04-16T15:03:20;23.20;;;6.93;;
69736;SDS011;64476;55.004;73.342;2023-04-16T15:06:23;32.80;;;6.55;;
69736;SDS011;64476;55.004;73.342;2023-04-16T15:13:50;32.00;;;9.27;;
69736;SDS011;64476;55.004;73.342;2023-04-16T15:16:52;36.70;;;10.40;;
69736;SDS011;64476;55.004;73.342;2023-04-16T15:19:54;22.17;;;8.50;;
69736;SDS011;64476;55.004;73.342;2023-04-16T15:23:27;27.08;;;10.00;;
69736;SDS011;64476;55.004;73.342;2023-04-16T15:26:31;24.40;;;10.80;;
69736;SDS011;64476;55.004;73.342;2023-04-16T15:29:32;40.05;;;11.27;;
69736;SDS011;64476;55.004;73.342;2023-04-16T15:32:34;44.70;;;14.70;;
69736;SDS011;64476;55.004;73.342;2023-04-16T15:35:36;31.55;;;12.00;;
69736;SDS011;64476;55.004;73.342;2023-04-16T15:38:41;45.70;;;20.80;;
69736;SDS011;64476;55.004;73.342;2023-04-16T15:41:48;44.80;;;14.07;;
